Time;durP1;ratioP1;P1;durP2;ratioP2;P2;SDS_P1;SDS_P2;PMS_P1;PMS_P2;Temp;Humidity;BMP_temperature;BMP_pressure;BME280_temperature;BME280_humidity;BME280_pressure;Samples;Min_cycle;Max_cycle;Signal;HPM_P1;HPM_P2
2023/01/28 00:01:26;;;;;;;12.07;8.63;;;5.70;99.90;;;;;;6244433;23;20153;-79
2023/01/28 00:03:54;;;;;;;11.67;8.77;;;5.70;99.90;;;;;;6243404;23;20597;-79
2023/01/28 00:06:22;;;;;;;12.50;8.37;;;5.70;99.90;;;;;;6245763;23;20132;-79
2023/01/28 00:08:48;;;;;;;11.50;7.83;;;5.60;99.90;;;;;;6243701;23;20180;-79
2023/01/28 00:11:14;;;;;;;11.70;8.57;;;5.60;99.90;;;;;;6244654;23;20148;-79
2023/01/28 00:13:41;;;;;;;10.77;8.50;;;5.50;99.90;;;;;;6245759;23;20175;-80
2023/01/28 00:16:08;;;;;;;11.73;7.87;;;5.40;99.90;;;;;;6247617;23;20135;-76
2023/01/28 00:18:34;;;;;;;11.20;8.23;;;5.50;99.90;;;;;;6245095;23;20231;-76
2023/01/28 00:21:09;;;;;;;12.03;8.60;;;5.60;99.90;;;;;;6247364;22;20143;-79
2023/01/28 00:23:49;;;;;;;11.57;8.33;;;5.70;99.90;;;;;;6247483;22;20133;-80
2023/01/28 00:26:15;;;;;;;10.00;7.83;;;5.90;99.90;;;;;;6245901;23;20217;-80
2023/01/28 00:28:45;;;;;;;12.13;8.97;;;5.80;99.90;;;;;;6245789;23;20150;-79
2023/01/28 00:31:17;;;;;;;12.03;8.37;;;5.90;99.90;;;;;;6246033;23;20152;-79
2023/01/28 00:33:45;;;;;;;14.40;8.87;;;5.90;99.90;;;;;;6245636;23;20260;-79
2023/01/28 00:36:13;;;;;;;12.60;8.83;;;5.90;99.90;;;;;;6245576;23;20143;-79
2023/01/28 00:38:42;;;;;;;11.10;8.37;;;5.90;99.90;;;;;;6247161;22;20583;-79
2023/01/28 00:41:17;;;;;;;12.80;8.80;;;5.70;99.90;;;;;;6243488;23;20149;-79
2023/01/28 00:43:44;;;;;;;11.77;8.37;;;5.70;99.90;;;;;;6245261;23;20159;-80
2023/01/28 00:46:11;;;;;;;13.47;8.37;;;5.80;99.90;;;;;;6245104;22;20620;-79
2023/01/28 00:48:38;;;;;;;10.83;8.30;;;5.70;99.90;;;;;;6244690;23;20156;-79
2023/01/28 00:51:04;;;;;;;11.27;8.13;;;5.60;99.90;;;;;;6245267;23;20177;-79
2023/01/28 00:53:31;;;;;;;12.30;8.10;;;5.70;99.90;;;;;;6246874;23;20511;-79
2023/01/28 00:55:57;;;;;;;12.40;8.17;;;5.60;99.90;;;;;;6244611;23;20152;-79
2023/01/28 00:58:25;;;;;;;11.50;7.73;;;5.60;99.90;;;;;;6244512;23;20152;-79
2023/01/28 01:00:51;;;;;;;12.70;7.20;;;5.70;99.90;;;;;;6245059;23;20148;-79
2023/01/28 01:03:17;;;;;;;11.77;7.60;;;5.80;99.90;;;;;;6244646;23;20183;-80
2023/01/28 01:05:43;;;;;;;9.43;7.17;;;5.80;99.90;;;;;;6246767;23;20592;-79
2023/01/28 01:08:08;;;;;;;9.50;7.20;;;5.70;99.90;;;;;;6245448;23;20171;-79
2023/01/28 01:10:35;;;;;;;8.77;7.30;;;5.70;99.90;;;;;;6245176;23;20573;-79
2023/01/28 01:13:01;;;;;;;10.97;7.77;;;5.70;99.90;;;;;;6244420;23;20510;-81
2023/01/28 01:15:27;;;;;;;11.47;7.67;;;5.60;99.90;;;;;;6245103;23;20142;-79
2023/01/28 01:17:52;;;;;;;9.43;7.20;;;5.50;99.90;;;;;;6246768;23;20338;-80
2023/01/28 01:20:24;;;;;;;10.33;7.90;;;5.60;99.90;;;;;;6245542;23;20481;-79
2023/01/28 01:22:50;;;;;;;11.40;7.57;;;5.70;99.90;;;;;;6244668;22;20211;-79
2023/01/28 01:25:17;;;;;;;10.97;8.20;;;5.70;99.90;;;;;;6245319;23;20574;-79
2023/01/28 01:27:47;;;;;;;9.80;7.63;;;5.80;99.90;;;;;;6245051;23;20160;-79
2023/01/28 01:30:13;;;;;;;11.70;8.47;;;5.70;99.90;;;;;;6245068;23;20222;-79
2023/01/28 01:32:39;;;;;;;11.30;8.33;;;5.80;99.90;;;;;;6244838;23;20241;-79
2023/01/28 01:35:06;;;;;;;12.73;8.97;;;5.70;99.90;;;;;;6245253;23;20224;-79
2023/01/28 01:37:33;;;;;;;11.67;8.93;;;5.70;99.90;;;;;;6244911;23;20143;-79
2023/01/28 01:40:01;;;;;;;11.30;8.20;;;5.70;99.90;;;;;;6246796;22;20128;-79
2023/01/28 01:42:27;;;;;;;12.03;8.70;;;5.70;99.90;;;;;;6244794;23;20578;-79
2023/01/28 01:45:00;;;;;;;12.10;8.37;;;5.80;99.90;;;;;;6244316;23;20147;-80
2023/01/28 01:47:31;;;;;;;12.30;8.80;;;5.80;99.90;;;;;;6243719;23;20172;-79
2023/01/28 01:50:01;;;;;;;12.33;8.70;;;5.70;99.90;;;;;;6246833;22;20140;-79
2023/01/28 01:52:32;;;;;;;13.57;9.60;;;5.80;99.90;;;;;;6245119;23;20215;-79
2023/01/28 01:55:00;;;;;;;11.97;8.63;;;5.70;99.90;;;;;;6245682;23;20177;-79
2023/01/28 01:57:31;;;;;;;12.97;8.70;;;5.70;99.90;;;;;;6245084;23;20459;-80
2023/01/28 02:00:04;;;;;;;13.00;8.70;;;5.60;99.90;;;;;;6244731;23;20160;-79
2023/01/28 02:02:38;;;;;;;12.77;8.33;;;5.60;99.90;;;;;;6244310;23;20582;-79
2023/01/28 02:05:06;;;;;;;12.93;8.67;;;5.50;99.90;;;;;;6246390;22;20134;-79
2023/01/28 02:07:32;;;;;;;11.37;8.33;;;5.60;99.90;;;;;;6244644;23;20676;-79
2023/01/28 02:09:57;;;;;;;12.20;8.50;;;5.60;99.90;;;;;;6245050;23;20459;-79
2023/01/28 02:12:29;;;;;;;13.47;8.17;;;5.70;99.90;;;;;;6244733;22;20190;-79
2023/01/28 02:15:16;;;;;;;12.43;8.70;;;5.70;99.90;;;;;;6246148;22;20203;-79
2023/01/28 02:17:42;;;;;;;11.87;8.83;;;5.70;99.90;;;;;;6244875;23;20574;-77
2023/01/28 02:20:10;;;;;;;13.13;8.83;;;5.60;99.90;;;;;;6244421;23;20167;-78
2023/01/28 02:23:01;;;;;;;13.33;8.97;;;5.60;99.90;;;;;;6244073;23;20148;-76
2023/01/28 02:25:58;;;;;;;13.37;9.03;;;5.50;99.90;;;;;;6244347;23;20205;-76
2023/01/28 02:28:31;;;;;;;14.83;8.70;;;5.50;99.90;;;;;;6243904;23;20164;-77
2023/01/28 02:31:23;;;;;;;11.73;8.20;;;5.40;99.90;;;;;;6244130;23;20176;-77
2023/01/28 02:34:18;;;;;;;11.50;8.13;;;5.50;99.90;;;;;;6243778;23;20633;-77
2023/01/28 02:37:03;;;;;;;13.33;7.87;;;5.50;99.90;;;;;;6246393;22;20132;-80
2023/01/28 02:39:35;;;;;;;13.57;8.93;;;5.40;99.90;;;;;;6245058;23;20157;-81
2023/01/28 02:42:10;;;;;;;13.87;9.23;;;5.50;99.90;;;;;;6244816;23;20636;-80
2023/01/28 02:44:36;;;;;;;12.43;8.47;;;5.70;99.90;;;;;;6246038;22;20445;-80
2023/01/28 02:49:50;;;;;;;15.10;9.63;;;5.60;99.90;;;;;;6246192;23;20190;-80
2023/01/28 02:55:27;;;;;;;13.93;9.03;;;5.60;99.90;;;;;;6246034;23;20199;-80
2023/01/28 02:58:05;;;;;;;14.57;8.37;;;5.60;99.90;;;;;;6244727;23;20151;-80
2023/01/28 03:00:43;;;;;;;12.53;8.83;;;5.50;99.90;;;;;;6244564;23;20151;-80
2023/01/28 03:03:33;;;;;;;13.70;8.57;;;5.40;99.90;;;;;;6245118;23;20242;-80
2023/01/28 03:06:06;;;;;;;13.40;8.53;;;5.60;99.90;;;;;;6244436;22;20227;-81
2023/01/28 03:36:48;;;;;;;13.30;8.80;;;5.30;99.90;;;;;;6245693;23;20213;-79
2023/01/28 03:39:14;;;;;;;11.33;7.47;;;5.30;99.90;;;;;;6246134;22;20196;-79
2023/01/28 03:41:40;;;;;;;12.17;7.90;;;5.30;99.90;;;;;;6244604;23;20147;-79
2023/01/28 03:46:50;;;;;;;15.40;8.60;;;5.40;99.90;;;;;;6247281;23;20504;-79
2023/01/28 03:49:16;;;;;;;12.00;7.77;;;5.20;99.90;;;;;;6246808;23;20144;-79
2023/01/28 03:51:42;;;;;;;12.97;8.53;;;5.20;99.90;;;;;;6246407;23;20571;-79
2023/01/28 03:54:09;;;;;;;11.70;8.00;;;5.10;99.90;;;;;;6246208;23;20170;-79
2023/01/28 03:56:36;;;;;;;12.40;7.97;;;5.20;99.90;;;;;;6246295;23;20148;-79
2023/01/28 03:59:03;;;;;;;10.83;7.30;;;5.30;99.90;;;;;;6245409;23;20202;-80
2023/01/28 04:01:28;;;;;;;12.40;7.83;;;5.20;99.90;;;;;;6245444;23;20243;-79
2023/01/28 04:03:54;;;;;;;11.47;7.43;;;5.10;99.90;;;;;;6246822;23;20437;-79
2023/01/28 04:06:19;;;;;;;11.83;7.77;;;5.30;99.90;;;;;;6246207;23;20234;-79
2023/01/28 04:08:51;;;;;;;13.23;7.90;;;5.10;99.90;;;;;;6246908;23;20526;-79
2023/01/28 04:11:19;;;;;;;11.60;7.13;;;5.00;99.90;;;;;;6244910;23;20239;-79
2023/01/28 04:13:45;;;;;;;13.43;8.03;;;5.00;99.90;;;;;;6245009;23;20286;-79
2023/01/28 04:16:15;;;;;;;12.60;8.13;;;4.90;99.90;;;;;;6245151;23;20477;-79
2023/01/28 04:18:40;;;;;;;13.50;8.50;;;4.90;99.90;;;;;;6245348;23;20141;-79
2023/01/28 04:21:06;;;;;;;13.27;8.43;;;4.90;99.90;;;;;;6245013;23;20152;-79
2023/01/28 04:23:32;;;;;;;11.70;7.63;;;4.80;99.90;;;;;;6245330;23;20171;-79
2023/01/28 04:25:57;;;;;;;12.00;7.70;;;4.80;99.90;;;;;;6244981;23;20143;-79
2023/01/28 04:28:23;;;;;;;12.00;7.90;;;4.80;99.90;;;;;;6245699;23;20475;-79
2023/01/28 04:30:50;;;;;;;11.90;7.90;;;4.70;99.90;;;;;;6245277;23;20159;-79
2023/01/28 04:33:16;;;;;;;11.53;7.90;;;4.90;99.90;;;;;;6244911;23;20172;-78
2023/01/28 04:35:44;;;;;;;12.07;7.97;;;5.00;99.90;;;;;;6246937;22;20219;-79
2023/01/28 04:38:09;;;;;;;11.97;8.00;;;5.10;99.90;;;;;;6245094;23;20144;-79
2023/01/28 04:40:36;;;;;;;12.50;8.13;;;5.00;99.90;;;;;;6245573;23;20146;-79
2023/01/28 04:43:02;;;;;;;12.73;8.40;;;4.90;99.90;;;;;;6244939;23;20156;-79
2023/01/28 04:45:28;;;;;;;12.60;8.10;;;4.90;99.90;;;;;;6244843;23;20203;-80
2023/01/28 04:47:53;;;;;;;12.90;8.17;;;4.90;99.90;;;;;;6244809;23;20160;-79
2023/01/28 04:50:19;;;;;;;12.80;8.53;;;5.10;99.90;;;;;;6246485;23;20474;-80
2023/01/28 04:52:44;;;;;;;14.43;8.57;;;5.00;99.90;;;;;;6245284;23;20173;-80
2023/01/28 04:55:10;;;;;;;12.00;7.87;;;5.00;99.90;;;;;;6245845;23;20176;-79
2023/01/28 04:57:36;;;;;;;12.37;8.13;;;5.20;99.90;;;;;;6246743;23;20147;-79
2023/01/28 05:00:04;;;;;;;14.30;9.40;;;5.10;99.90;;;;;;6247270;23;20189;-78
2023/01/28 05:02:31;;;;;;;15.30;10.17;;;5.20;99.90;;;;;;6244953;23;20156;-79
2023/01/28 05:04:57;;;;;;;15.43;9.43;;;5.20;99.90;;;;;;6247672;22;20471;-79
2023/01/28 05:07:23;;;;;;;14.47;10.13;;;5.10;99.90;;;;;;6245674;23;20150;-80
2023/01/28 05:09:48;;;;;;;13.47;9.03;;;5.10;99.90;;;;;;6245542;23;20155;-79
2023/01/28 05:12:14;;;;;;;14.07;9.60;;;5.10;99.90;;;;;;6246056;23;20191;-79
2023/01/28 05:14:40;;;;;;;14.70;10.07;;;5.20;99.90;;;;;;6246369;23;20200;-79
2023/01/28 05:17:05;;;;;;;15.67;10.07;;;5.10;99.90;;;;;;6247416;23;20569;-79
2023/01/28 05:19:32;;;;;;;16.00;9.90;;;5.00;99.90;;;;;;6245073;23;20236;-79
2023/01/28 05:21:57;;;;;;;14.33;9.73;;;5.10;99.90;;;;;;6244514;22;20140;-80
2023/01/28 05:24:24;;;;;;;16.37;9.67;;;5.10;99.90;;;;;;6244385;23;20169;-81
2023/01/28 05:26:50;;;;;;;14.03;9.67;;;5.10;99.90;;;;;;6246723;23;20582;-81
2023/01/28 05:29:16;;;;;;;15.53;9.57;;;5.00;99.90;;;;;;6244971;23;20204;-79
2023/01/28 05:31:42;;;;;;;13.23;9.07;;;5.10;99.90;;;;;;6245734;23;20147;-78
2023/01/28 05:34:07;;;;;;;13.00;8.93;;;5.00;99.90;;;;;;6244352;23;20216;-80
2023/01/28 05:36:34;;;;;;;14.00;9.17;;;4.90;99.90;;;;;;6246675;23;20128;-79
2023/01/28 05:39:00;;;;;;;13.57;8.87;;;5.00;99.90;;;;;;6244243;23;20179;-79
2023/01/28 05:41:25;;;;;;;14.43;9.43;;;4.80;99.90;;;;;;6246202;23;20128;-80
2023/01/28 05:43:51;;;;;;;11.70;8.60;;;4.90;99.90;;;;;;6245825;23;20189;-80
2023/01/28 05:46:17;;;;;;;12.87;8.53;;;4.90;99.90;;;;;;6246032;22;20242;-80
2023/01/28 05:48:42;;;;;;;13.13;7.97;;;4.90;99.90;;;;;;6244175;23;20152;-80
2023/01/28 05:51:08;;;;;;;11.37;8.27;;;4.80;99.90;;;;;;6244526;23;20148;-79
2023/01/28 05:53:34;;;;;;;14.00;9.33;;;4.80;99.90;;;;;;6243968;22;20174;-79
2023/01/28 05:55:59;;;;;;;14.23;10.17;;;4.90;99.90;;;;;;6244073;23;20140;-79
2023/01/28 05:58:29;;;;;;;12.97;8.93;;;4.80;99.90;;;;;;6244441;23;20227;-79
2023/01/28 06:00:55;;;;;;;13.27;8.67;;;4.80;99.90;;;;;;6245996;22;20132;-80
2023/01/28 06:03:21;;;;;;;15.87;9.13;;;4.80;99.90;;;;;;6244047;23;20246;-78
2023/01/28 06:05:47;;;;;;;13.60;8.60;;;4.70;99.90;;;;;;6244182;23;20140;-79
2023/01/28 06:08:13;;;;;;;12.67;8.87;;;4.70;99.90;;;;;;6244041;23;20154;-79
2023/01/28 06:10:39;;;;;;;12.57;8.83;;;4.80;99.90;;;;;;6244868;23;20166;-79
2023/01/28 06:13:05;;;;;;;13.13;8.80;;;4.80;99.90;;;;;;6244015;23;20606;-80
2023/01/28 06:15:31;;;;;;;13.57;9.03;;;4.80;99.90;;;;;;6245941;23;20127;-79
2023/01/28 06:17:57;;;;;;;13.27;8.60;;;4.80;99.90;;;;;;6243941;23;20501;-79
2023/01/28 06:20:22;;;;;;;13.60;9.03;;;4.70;99.90;;;;;;6244576;23;20208;-79
2023/01/28 06:22:52;;;;;;;14.37;8.73;;;4.70;99.90;;;;;;6243973;23;20140;-80
2023/01/28 06:25:18;;;;;;;11.43;7.80;;;4.70;99.90;;;;;;6244797;23;20155;-80
2023/01/28 06:27:45;;;;;;;11.90;8.20;;;4.70;99.90;;;;;;6243679;23;20185;-80
2023/01/28 06:30:11;;;;;;;11.47;7.77;;;4.70;99.90;;;;;;6243556;23;20152;-79
2023/01/28 06:32:37;;;;;;;11.93;7.90;;;4.80;99.90;;;;;;6245531;22;20163;-80
2023/01/28 06:35:03;;;;;;;11.83;7.73;;;4.80;99.90;;;;;;6245653;22;20151;-80
2023/01/28 06:37:29;;;;;;;11.50;8.10;;;4.80;99.90;;;;;;6243594;23;20183;-80
2023/01/28 06:39:54;;;;;;;10.80;7.60;;;4.70;99.90;;;;;;6245541;23;20181;-79
2023/01/28 06:42:20;;;;;;;11.83;8.10;;;4.60;99.90;;;;;;6244131;23;20605;-79
2023/01/28 06:44:45;;;;;;;14.03;8.77;;;4.70;99.90;;;;;;6243763;23;20575;-80
2023/01/28 06:47:13;;;;;;;11.27;7.50;;;4.70;99.90;;;;;;6243582;23;20226;-79
2023/01/28 06:49:40;;;;;;;14.33;9.10;;;4.70;99.90;;;;;;6243793;23;20205;-80
2023/01/28 06:52:07;;;;;;;12.37;8.20;;;4.70;99.90;;;;;;6243397;23;20151;-77
2023/01/28 06:54:33;;;;;;;10.80;7.47;;;4.50;99.90;;;;;;6245072;23;20143;-79
2023/01/28 06:56:59;;;;;;;11.57;8.00;;;4.40;99.90;;;;;;6243818;23;20155;-79
2023/01/28 06:59:24;;;;;;;11.87;7.80;;;4.30;99.90;;;;;;6243904;23;20234;-79
2023/01/28 07:01:50;;;;;;;13.47;8.87;;;4.40;99.90;;;;;;6243268;23;20644;-80
2023/01/28 07:04:16;;;;;;;11.67;8.23;;;4.30;99.90;;;;;;6243574;23;20165;-80
2023/01/28 07:06:41;;;;;;;12.23;8.43;;;4.40;99.90;;;;;;6243620;23;20140;-80
2023/01/28 07:09:07;;;;;;;11.53;8.13;;;4.40;99.90;;;;;;6245315;23;20140;-79
2023/01/28 07:11:32;;;;;;;12.33;8.20;;;4.60;99.90;;;;;;6243902;23;20145;-80
2023/01/28 07:13:58;;;;;;;10.53;7.63;;;4.60;99.90;;;;;;6245648;23;20585;-80
2023/01/28 07:16:25;;;;;;;13.10;8.73;;;4.50;99.90;;;;;;6243968;23;20141;-81
2023/01/28 07:18:51;;;;;;;14.47;9.40;;;4.40;99.90;;;;;;6243924;23;20229;-81
2023/01/28 07:21:17;;;;;;;13.87;8.70;;;4.50;99.90;;;;;;6244717;23;20237;-80
2023/01/28 07:23:43;;;;;;;13.20;8.67;;;4.50;99.90;;;;;;6247370;23;20159;-81
2023/01/28 07:26:08;;;;;;;11.83;8.30;;;4.60;99.90;;;;;;6247050;22;20139;-80
2023/01/28 07:28:34;;;;;;;11.43;7.80;;;4.70;99.90;;;;;;6247558;22;20519;-80
2023/01/28 07:31:00;;;;;;;12.50;8.27;;;4.60;99.90;;;;;;6245399;23;20147;-79
2023/01/28 07:33:26;;;;;;;12.70;8.23;;;4.60;99.90;;;;;;6245397;23;20168;-80
2023/01/28 07:35:52;;;;;;;12.97;8.70;;;4.70;99.90;;;;;;6245229;23;20181;-80
2023/01/28 07:38:17;;;;;;;12.90;8.07;;;4.60;99.90;;;;;;6245402;23;20143;-79
2023/01/28 07:40:44;;;;;;;11.17;7.97;;;4.60;99.90;;;;;;6245423;23;20193;-80
2023/01/28 07:43:10;;;;;;;12.43;7.80;;;4.60;99.90;;;;;;6245401;23;20156;-80
2023/01/28 07:45:36;;;;;;;13.33;8.10;;;4.60;99.90;;;;;;6245585;23;20143;-80
2023/01/28 07:48:07;;;;;;;11.70;7.77;;;4.50;99.90;;;;;;6247128;22;20441;-80
2023/01/28 07:50:34;;;;;;;13.23;8.10;;;4.30;99.90;;;;;;6245161;22;20223;-82
2023/01/28 07:53:05;;;;;;;12.53;8.20;;;4.30;99.90;;;;;;6245336;23;20202;-80
2023/01/28 07:55:34;;;;;;;10.03;7.30;;;4.20;99.90;;;;;;6245098;23;20148;-80
2023/01/28 07:58:02;;;;;;;11.13;6.90;;;4.30;99.90;;;;;;6245780;23;20151;-80
2023/01/28 08:00:30;;;;;;;12.30;8.57;;;4.10;99.90;;;;;;6246993;22;20143;-79
2023/01/28 08:03:01;;;;;;;13.33;8.63;;;4.20;99.90;;;;;;6246989;22;20169;-81
2023/01/28 08:05:42;;;;;;;11.63;8.50;;;4.10;99.90;;;;;;6247009;22;20257;-80
2023/01/28 08:08:09;;;;;;;13.03;8.63;;;4.30;99.90;;;;;;6245202;23;20143;-79
2023/01/28 08:10:35;;;;;;;13.73;8.33;;;4.40;99.90;;;;;;6245832;23;20168;-80
2023/01/28 08:13:01;;;;;;;13.47;7.93;;;4.40;99.90;;;;;;6245006;23;20174;-80
2023/01/28 08:15:29;;;;;;;11.07;7.43;;;4.50;99.90;;;;;;6246964;23;20211;-80
2023/01/28 08:17:56;;;;;;;12.87;8.67;;;4.40;99.90;;;;;;6244865;23;20185;-80
2023/01/28 08:20:24;;;;;;;12.03;8.20;;;4.50;99.90;;;;;;6245023;23;20178;-80
2023/01/28 08:23:13;;;;;;;12.37;8.43;;;4.30;99.90;;;;;;6246374;22;20137;-80
2023/01/28 08:25:42;;;;;;;12.67;8.20;;;4.40;99.90;;;;;;6246586;22;20131;-80
2023/01/28 08:28:09;;;;;;;11.90;8.70;;;4.40;99.90;;;;;;6245151;23;20165;-80
2023/01/28 08:30:37;;;;;;;13.73;9.23;;;4.50;99.90;;;;;;6245011;23;20163;-80
2023/01/28 08:33:06;;;;;;;13.13;8.80;;;4.40;99.90;;;;;;6244578;23;20179;-80
2023/01/28 08:35:32;;;;;;;12.13;8.27;;;4.30;99.90;;;;;;6246880;22;20132;-80
2023/01/28 08:38:00;;;;;;;15.60;10.10;;;4.30;99.90;;;;;;6245477;23;20194;-80
2023/01/28 08:40:26;;;;;;;14.43;8.93;;;4.30;99.90;;;;;;6245885;23;20143;-80
2023/01/28 08:42:53;;;;;;;14.10;9.03;;;4.50;99.90;;;;;;6245340;23;20144;-80
2023/01/28 08:45:24;;;;;;;12.87;8.67;;;4.50;99.90;;;;;;6245398;23;20152;-80
2023/01/28 08:48:04;;;;;;;15.70;8.77;;;4.60;99.90;;;;;;6246399;22;20140;-80
2023/01/28 08:50:36;;;;;;;12.27;8.67;;;4.50;99.90;;;;;;6244980;23;20232;-80
2023/01/28 08:53:07;;;;;;;14.40;9.03;;;4.60;99.90;;;;;;6247027;22;20220;-80
2023/01/28 08:55:33;;;;;;;14.90;9.00;;;4.60;99.90;;;;;;6246684;22;20617;-80
2023/01/28 08:58:04;;;;;;;13.13;8.80;;;4.70;99.90;;;;;;6247070;23;20144;-80
2023/01/28 09:00:30;;;;;;;13.30;8.83;;;4.60;99.90;;;;;;6246590;22;20139;-80
2023/01/28 09:02:55;;;;;;;13.23;9.20;;;4.40;99.90;;;;;;6245983;22;20215;-80
2023/01/28 09:05:21;;;;;;;13.37;9.20;;;4.40;99.90;;;;;;6244539;23;20274;-80
2023/01/28 09:07:47;;;;;;;13.87;8.80;;;4.50;99.90;;;;;;6244682;23;20147;-79
2023/01/28 09:10:14;;;;;;;15.03;9.60;;;4.20;99.90;;;;;;6245983;23;20240;-80
2023/01/28 09:12:41;;;;;;;15.10;8.57;;;4.10;99.90;;;;;;6248898;23;20163;-80
2023/01/28 09:15:08;;;;;;;15.83;9.80;;;4.10;99.90;;;;;;6248400;22;20438;-80
2023/01/28 09:17:33;;;;;;;16.07;10.17;;;4.10;99.90;;;;;;6244314;23;20561;-80
2023/01/28 09:19:59;;;;;;;15.50;10.00;;;4.20;99.90;;;;;;6244819;23;20141;-80
2023/01/28 09:22:25;;;;;;;14.90;10.00;;;4.30;99.90;;;;;;6245384;23;20201;-80
2023/01/28 09:24:50;;;;;;;15.87;10.37;;;4.40;99.90;;;;;;6246123;23;20137;-80
2023/01/28 09:27:17;;;;;;;14.67;10.07;;;4.50;99.90;;;;;;6246387;23;20129;-80
2023/01/28 09:29:43;;;;;;;16.10;10.30;;;4.50;99.90;;;;;;6244708;23;20560;-80
2023/01/28 09:32:09;;;;;;;14.87;9.93;;;4.60;99.90;;;;;;6245014;23;20137;-80
2023/01/28 09:34:35;;;;;;;15.97;9.97;;;4.50;99.90;;;;;;6244430;23;20475;-80
2023/01/28 09:37:01;;;;;;;17.33;9.93;;;4.40;99.90;;;;;;6244591;22;20135;-80
2023/01/28 09:39:29;;;;;;;16.17;10.10;;;4.60;99.90;;;;;;6244707;23;20158;-80
2023/01/28 09:42:02;;;;;;;17.37;10.03;;;4.60;99.90;;;;;;6246011;22;20132;-80
2023/01/28 09:45:11;;;;;;;16.20;9.93;;;4.60;99.90;;;;;;6244805;23;20231;-80
2023/01/28 09:47:42;;;;;;;14.63;9.73;;;4.50;99.90;;;;;;6244299;23;20164;-80
2023/01/28 09:50:17;;;;;;;16.40;10.20;;;4.40;99.90;;;;;;6244195;23;20151;-80
2023/01/28 09:53:01;;;;;;;15.30;10.10;;;4.50;99.90;;;;;;6244412;23;20167;-80
2023/01/28 09:55:59;;;;;;;15.70;10.17;;;4.60;99.90;;;;;;6246003;23;20143;-80
2023/01/28 09:58:38;;;;;;;15.40;10.10;;;4.80;99.90;;;;;;6244972;23;20151;-80
2023/01/28 10:01:43;;;;;;;14.77;9.07;;;4.70;99.90;;;;;;6246033;23;20128;-81
2023/01/28 10:04:56;;;;;;;15.53;10.10;;;4.60;99.90;;;;;;6245580;22;20139;-80
2023/01/28 10:07:44;;;;;;;16.07;10.47;;;4.70;99.90;;;;;;6244882;23;20243;-80
2023/01/28 10:10:28;;;;;;;17.10;10.47;;;4.70;99.90;;;;;;6244552;23;20622;-80
2023/01/28 10:16:16;;;;;;;16.00;9.77;;;4.70;99.90;;;;;;6246234;23;20193;-80
2023/01/28 10:18:56;;;;;;;15.60;10.10;;;4.60;99.90;;;;;;6243900;23;20175;-80
2023/01/28 10:21:31;;;;;;;17.43;10.77;;;4.50;99.90;;;;;;6245981;23;20131;-80
2023/01/28 10:24:00;;;;;;;19.23;9.73;;;4.30;99.90;;;;;;6244377;23;20151;-79
2023/01/28 10:26:41;;;;;;;16.57;10.77;;;4.30;99.90;;;;;;6246492;22;20595;-79
2023/01/28 10:29:34;;;;;;;17.23;10.77;;;4.30;99.90;;;;;;6244123;23;20163;-79
2023/01/28 10:32:15;;;;;;;17.57;10.60;;;4.40;99.90;;;;;;6241683;23;20504;-79
2023/01/28 10:34:41;;;;;;;18.67;10.63;;;4.60;99.90;;;;;;6245937;23;20169;-79
2023/01/28 10:37:13;;;;;;;16.40;10.33;;;4.60;99.90;;;;;;6246039;23;20129;-79
2023/01/28 10:39:45;;;;;;;15.27;9.97;;;4.60;99.90;;;;;;6245699;23;20136;-79
2023/01/28 10:42:34;;;;;;;15.27;9.97;;;4.70;99.90;;;;;;6245815;23;20215;-79
2023/01/28 10:45:18;;;;;;;14.73;10.00;;;4.70;99.90;;;;;;6245934;22;20131;-79
2023/01/28 10:48:22;;;;;;;16.97;10.80;;;4.50;99.90;;;;;;6244258;23;20174;-79
2023/01/28 10:51:03;;;;;;;14.83;9.30;;;4.50;99.90;;;;;;6244066;22;20149;-79
2023/01/28 10:53:39;;;;;;;16.07;11.00;;;4.50;99.90;;;;;;6243969;23;20180;-79
2023/01/28 10:56:22;;;;;;;15.77;10.27;;;4.60;99.90;;;;;;6245490;22;20206;-79
2023/01/28 10:59:26;;;;;;;14.00;9.87;;;4.70;99.90;;;;;;6245854;23;20306;-79
2023/01/28 11:02:05;;;;;;;15.30;9.03;;;4.80;99.90;;;;;;6245487;22;20149;-79
2023/01/28 11:04:34;;;;;;;12.47;8.40;;;4.80;99.90;;;;;;6245880;22;20134;-78
2023/01/28 11:07:02;;;;;;;14.97;9.63;;;4.80;99.90;;;;;;6245439;22;20553;-79
2023/01/28 11:09:35;;;;;;;14.47;9.23;;;4.70;99.90;;;;;;6246839;22;20136;-79
2023/01/28 11:12:16;;;;;;;13.07;9.13;;;4.80;99.90;;;;;;6246352;22;20153;-79
2023/01/28 11:14:58;;;;;;;15.17;9.10;;;4.80;99.90;;;;;;6246001;22;20654;-79
2023/01/28 11:17:34;;;;;;;15.43;10.20;;;5.00;99.90;;;;;;6245468;22;20529;-79
2023/01/28 11:20:18;;;;;;;15.20;9.47;;;5.10;99.90;;;;;;6245338;22;20143;-79
2023/01/28 11:22:48;;;;;;;15.43;10.00;;;5.20;99.90;;;;;;6246220;22;20536;-78
2023/01/28 11:25:32;;;;;;;15.50;9.37;;;5.20;99.90;;;;;;6243528;23;20147;-79
2023/01/28 11:28:02;;;;;;;13.23;8.00;;;4.70;99.90;;;;;;6246148;22;20159;-79
2023/01/28 11:30:33;;;;;;;13.87;7.77;;;4.40;99.90;;;;;;6245834;22;20164;-78
2023/01/28 11:33:11;;;;;;;13.67;8.83;;;4.30;99.90;;;;;;6245145;22;20166;-79
2023/01/28 11:35:37;;;;;;;15.80;9.43;;;4.30;99.90;;;;;;6245380;23;20208;-79
2023/01/28 11:38:24;;;;;;;13.83;9.20;;;4.50;99.90;;;;;;6244834;23;20163;-79
2023/01/28 11:40:54;;;;;;;13.77;8.73;;;4.70;99.90;;;;;;6245278;22;20609;-79
2023/01/28 11:43:28;;;;;;;15.67;10.20;;;4.80;99.90;;;;;;6245207;22;20558;-79
2023/01/28 11:46:30;;;;;;;14.03;8.73;;;4.80;99.90;;;;;;6245574;23;20163;-79
2023/01/28 11:49:36;;;;;;;15.37;9.20;;;4.80;99.90;;;;;;6244828;23;20147;-79
2023/01/28 11:52:24;;;;;;;13.73;8.93;;;4.80;99.90;;;;;;6246923;23;20147;-78
2023/01/28 11:55:23;;;;;;;16.30;9.23;;;4.70;99.90;;;;;;6245067;23;20168;-77
2023/01/28 11:58:26;;;;;;;16.30;10.03;;;4.50;99.90;;;;;;6246915;22;20128;-79
2023/01/28 12:01:15;;;;;;;15.47;9.30;;;4.60;99.90;;;;;;6246209;23;20152;-79
2023/01/28 12:03:52;;;;;;;14.53;8.83;;;4.70;99.90;;;;;;6247026;22;20140;-79
2023/01/28 12:07:00;;;;;;;14.43;9.17;;;4.60;99.90;;;;;;6245530;23;20153;-79
2023/01/28 12:09:53;;;;;;;16.17;9.23;;;4.70;99.90;;;;;;6247758;22;20172;-79
2023/01/28 12:12:35;;;;;;;14.80;9.07;;;5.00;99.90;;;;;;6248394;22;20152;-78
2023/01/28 12:15:23;;;;;;;14.03;8.83;;;4.90;99.90;;;;;;6248872;23;20213;-78
2023/01/28 12:18:04;;;;;;;13.90;8.70;;;4.70;99.90;;;;;;6246927;23;20143;-78
2023/01/28 12:21:07;;;;;;;14.60;8.40;;;4.90;99.90;;;;;;6246055;23;20140;-78
2023/01/28 12:23:54;;;;;;;14.27;9.20;;;4.70;99.90;;;;;;6246661;23;20151;-79
2023/01/28 12:26:45;;;;;;;16.20;9.23;;;4.80;99.90;;;;;;6248073;23;20150;-79
2023/01/28 12:29:25;;;;;;;14.60;9.90;;;4.80;99.90;;;;;;6242114;23;20261;-79
2023/01/28 12:32:05;;;;;;;13.90;9.07;;;5.00;99.90;;;;;;6245038;23;20154;-80
2023/01/28 12:34:55;;;;;;;13.33;8.77;;;5.20;99.90;;;;;;6244788;23;20179;-78
2023/01/28 12:37:33;;;;;;;12.40;8.43;;;5.30;99.90;;;;;;6245190;23;20602;-78
2023/01/28 12:40:14;;;;;;;11.83;7.97;;;6.20;99.90;;;;;;6247139;22;20183;-78
2023/01/28 12:42:49;;;;;;;12.40;8.43;;;7.40;99.90;;;;;;6245531;23;20147;-78
2023/01/28 12:45:35;;;;;;;10.70;8.00;;;8.80;99.90;;;;;;6246596;23;20193;-78
2023/01/28 12:48:12;;;;;;;11.63;8.00;;;10.00;99.90;;;;;;6246478;23;20146;-78
2023/01/28 12:50:50;;;;;;;11.70;8.03;;;11.00;98.30;;;;;;6246920;23;20149;-78
2023/01/28 12:53:33;;;;;;;13.13;9.10;;;11.70;95.80;;;;;;6246875;23;20177;-78
2023/01/28 12:56:07;;;;;;;11.53;8.80;;;12.20;95.20;;;;;;6246781;23;20327;-78
2023/01/28 12:58:54;;;;;;;12.20;8.97;;;12.20;94.30;;;;;;6246784;23;20138;-78
2023/01/28 13:01:47;;;;;;;13.00;8.90;;;12.80;93.70;;;;;;6246025;23;20149;-79
2023/01/28 13:04:50;;;;;;;12.30;9.13;;;12.30;92.80;;;;;;6246759;23;20521;-78
2023/01/28 13:07:23;;;;;;;12.33;8.83;;;11.40;94.10;;;;;;6247384;23;20482;-78
2023/01/28 13:10:16;;;;;;;12.07;8.80;;;10.40;95.10;;;;;;6249181;22;20142;-78
2023/01/28 13:13:05;;;;;;;11.43;8.57;;;9.70;96.30;;;;;;6247606;23;20266;-78
2023/01/28 13:15:42;;;;;;;11.67;8.30;;;9.30;96.70;;;;;;6249392;22;20463;-79
2023/01/28 13:18:32;;;;;;;14.33;9.37;;;8.40;98.70;;;;;;6249284;22;20131;-78
2023/01/28 13:21:02;;;;;;;13.83;9.73;;;8.30;99.70;;;;;;6249058;22;20686;-78
2023/01/28 13:23:46;;;;;;;14.17;9.53;;;8.40;99.60;;;;;;6245704;23;20166;-77
2023/01/28 13:26:44;;;;;;;13.47;9.57;;;8.40;99.40;;;;;;6246088;23;20228;-77
2023/01/28 13:29:33;;;;;;;15.43;10.27;;;8.40;99.40;;;;;;6246414;23;20157;-79
2023/01/28 13:32:01;;;;;;;14.23;9.97;;;8.40;99.30;;;;;;6246440;23;20140;-78
2023/01/28 13:34:42;;;;;;;17.90;9.97;;;8.10;99.80;;;;;;6246013;23;20171;-79
2023/01/28 13:37:32;;;;;;;14.27;9.80;;;7.60;99.90;;;;;;6244786;23;20229;-79
2023/01/28 13:40:25;;;;;;;17.60;9.63;;;7.20;99.90;;;;;;6244312;23;20142;-79
2023/01/28 13:43:22;;;;;;;14.60;10.00;;;7.10;99.90;;;;;;6239101;23;20236;-79
2023/01/28 13:45:56;;;;;;;16.73;10.87;;;7.10;99.90;;;;;;6247193;23;20276;-79
2023/01/28 13:49:03;;;;;;;17.77;11.27;;;7.30;99.90;;;;;;6245757;23;20224;-77
2023/01/28 13:52:03;;;;;;;14.77;9.73;;;7.30;99.90;;;;;;6247056;23;20223;-78
2023/01/28 13:54:34;;;;;;;18.60;10.53;;;7.40;99.90;;;;;;6248365;22;20167;-83